createdAt,value
2019-01-24T00:01:07.662Z,-3.63
2019-01-24T00:02:40.670Z,-3.62
2019-01-24T00:04:16.817Z,-3.63
2019-01-24T00:05:49.291Z,-3.63
2019-01-24T00:07:23.155Z,-3.62
2019-01-24T00:08:57.067Z,-3.62
2019-01-24T00:10:31.453Z,-3.62
2019-01-24T00:12:05.490Z,-3.62
2019-01-24T00:13:38.565Z,-3.61
2019-01-24T00:15:11.815Z,-3.62
2019-01-24T00:16:45.658Z,-3.61
2019-01-24T00:18:19.936Z,-3.60
2019-01-24T00:19:54.235Z,-3.61
2019-01-24T00:21:27.847Z,-3.60
2019-01-24T00:23:01.916Z,-3.59
2019-01-24T00:24:36.043Z,-3.58
2019-01-24T00:26:09.910Z,-3.58
2019-01-24T00:27:44.033Z,-3.58
2019-01-24T00:29:17.899Z,-3.58
2019-01-24T00:30:51.126Z,-3.57
2019-01-24T00:32:25.146Z,-3.57
2019-01-24T00:33:58.371Z,-3.57
2019-01-24T00:35:32.824Z,-3.58
2019-01-24T00:37:05.886Z,-3.57
2019-01-24T00:38:39.044Z,-3.57
2019-01-24T00:40:12.722Z,-3.55
2019-01-24T00:41:47.035Z,-3.56
2019-01-24T00:43:20.568Z,-3.56
2019-01-24T00:44:53.436Z,-3.55
2019-01-24T00:46:26.557Z,-3.55
2019-01-24T00:48:01.003Z,-3.55
2019-01-24T00:49:35.204Z,-3.55
2019-01-24T00:51:09.081Z,-3.54
2019-01-24T00:52:42.942Z,-3.53
2019-01-24T00:54:15.841Z,-3.53
2019-01-24T00:55:49.867Z,-3.53
2019-01-24T00:57:23.895Z,-3.52
2019-01-24T00:58:56.922Z,-3.53
2019-01-24T01:00:34.729Z,-3.51
2019-01-24T01:02:08.668Z,-3.51
2019-01-24T01:03:41.518Z,-3.51
2019-01-24T01:05:15.455Z,-3.50
2019-01-24T01:06:49.206Z,-3.50
2019-01-24T01:08:25.404Z,-3.49
2019-01-24T01:09:59.522Z,-3.49
2019-01-24T01:11:33.631Z,-3.48
2019-01-24T01:13:07.867Z,-3.48
2019-01-24T01:14:42.624Z,-3.47
2019-01-24T01:16:16.560Z,-3.46
2019-01-24T01:17:50.518Z,-3.46
2019-01-24T01:20:30.208Z,-3.45
2019-01-24T01:22:05.648Z,-3.43
2019-01-24T01:23:38.877Z,-3.43
2019-01-24T01:25:13.253Z,-3.43
2019-01-24T01:26:47.485Z,-3.43
2019-01-24T01:28:21.671Z,-3.43
2019-01-24T01:29:55.348Z,-3.42
2019-01-24T01:31:29.958Z,-3.41
2019-01-24T01:33:03.172Z,-3.42
2019-01-24T01:34:37.170Z,-3.41
2019-01-24T01:36:11.293Z,-3.41
2019-01-24T01:37:45.395Z,-3.42
2019-01-24T01:39:18.256Z,-3.42
2019-01-24T01:40:52.179Z,-3.41
2019-01-24T01:42:25.133Z,-3.41
2019-01-24T01:43:59.540Z,-3.40
2019-01-24T01:45:36.056Z,-3.41
2019-01-24T01:47:08.880Z,-3.41
2019-01-24T01:48:42.958Z,-3.41
2019-01-24T01:50:16.989Z,-3.41
2019-01-24T01:51:51.017Z,-3.41
2019-01-24T01:53:25.155Z,-3.42
2019-01-24T01:54:59.131Z,-3.41
2019-01-24T01:56:33.530Z,-3.41
2019-01-24T01:58:07.590Z,-3.43
2019-01-24T01:59:41.815Z,-3.44
2019-01-24T02:01:15.666Z,-3.44
2019-01-24T02:02:50.258Z,-3.44
2019-01-24T02:04:23.761Z,-3.43
2019-01-24T02:05:56.632Z,-3.44
2019-01-24T02:07:31.243Z,-3.44
2019-01-24T02:09:05.237Z,-3.45
2019-01-24T02:10:39.235Z,-3.46
2019-01-24T02:12:13.444Z,-3.47
2019-01-24T02:13:47.698Z,-3.47
2019-01-24T02:15:23.316Z,-3.46
2019-01-24T02:16:57.706Z,-3.48
2019-01-24T02:18:30.495Z,-3.49
2019-01-24T02:20:04.435Z,-3.50
2019-01-24T02:21:39.225Z,-3.50
2019-01-24T02:23:12.741Z,-3.51
2019-01-24T02:24:46.687Z,-3.53
2019-01-24T02:26:19.666Z,-3.53
2019-01-24T02:27:52.796Z,-3.54
2019-01-24T02:29:26.916Z,-3.55
2019-01-24T02:31:00.903Z,-3.55
2019-01-24T02:32:34.941Z,-3.56
2019-01-24T02:34:09.422Z,-3.56
2019-01-24T02:35:43.350Z,-3.57
2019-01-24T02:37:17.767Z,-3.58
2019-01-24T02:38:51.873Z,-3.59
2019-01-24T02:40:25.952Z,-3.58
2019-01-24T02:42:00.121Z,-3.58
2019-01-24T02:43:35.010Z,-3.60
2019-01-24T02:45:08.786Z,-3.61
2019-01-24T02:46:42.902Z,-3.61
2019-01-24T02:48:17.053Z,-3.63
2019-01-24T02:49:51.140Z,-3.64
2019-01-24T02:51:25.002Z,-3.65
2019-01-24T02:52:58.042Z,-3.66
2019-01-24T02:54:32.553Z,-3.67
2019-01-24T02:56:06.510Z,-3.70
2019-01-24T02:57:39.653Z,-3.70
2019-01-24T02:59:15.025Z,-3.72
2019-01-24T03:00:48.860Z,-3.73
2019-01-24T03:02:22.862Z,-3.74
2019-01-24T03:03:57.351Z,-3.76
2019-01-24T03:05:33.817Z,-3.76
2019-01-24T03:07:08.141Z,-3.78
2019-01-24T03:08:42.571Z,-3.80
2019-01-24T03:10:16.609Z,-3.80
2019-01-24T03:11:50.755Z,-3.82
2019-01-24T03:13:25.109Z,-3.84
2019-01-24T03:14:57.930Z,-3.85
2019-01-24T03:16:32.047Z,-3.86
2019-01-24T03:18:06.045Z,-3.87
2019-01-24T03:19:39.372Z,-3.88
2019-01-24T03:21:12.386Z,-3.90
2019-01-24T03:22:46.462Z,-3.90
2019-01-24T03:24:21.139Z,-3.92
2019-01-24T03:25:55.467Z,-3.93
2019-01-24T03:27:29.482Z,-3.94
2019-01-24T03:29:03.577Z,-3.95
2019-01-24T03:30:39.617Z,-3.96
2019-01-24T03:32:13.645Z,-3.97
2019-01-24T03:33:48.279Z,-3.98
2019-01-24T03:35:24.487Z,-3.98
2019-01-24T03:36:58.441Z,-4.00
2019-01-24T03:38:31.462Z,-4.01
2019-01-24T03:40:04.768Z,-4.02
2019-01-24T03:41:38.882Z,-4.02
2019-01-24T03:43:12.794Z,-4.04
2019-01-24T03:47:23.402Z,-4.06
2019-01-24T03:48:56.664Z,-4.07
2019-01-24T03:50:32.814Z,-4.09
2019-01-24T03:52:06.097Z,-4.10
2019-01-24T03:53:39.192Z,-4.11
2019-01-24T03:55:13.395Z,-4.14
2019-01-24T03:56:47.505Z,-4.14
2019-01-24T03:58:22.131Z,-4.15
2019-01-24T03:59:57.336Z,-4.16
2019-01-24T04:01:31.330Z,-4.18
2019-01-24T04:03:06.499Z,-4.19
2019-01-24T04:04:39.813Z,-4.19
2019-01-24T04:06:13.058Z,-4.21
2019-01-24T04:07:47.696Z,-4.22
2019-01-24T04:09:23.514Z,-4.23
2019-01-24T04:10:57.546Z,-4.25
2019-01-24T04:12:31.194Z,-4.26
2019-01-24T04:14:04.381Z,-4.28
2019-01-24T04:15:40.273Z,-4.29
2019-01-24T04:17:14.796Z,-4.30
2019-01-24T04:18:47.962Z,-4.31
2019-01-24T04:20:23.508Z,-4.32
2019-01-24T04:21:56.585Z,-4.33
2019-01-24T04:23:30.624Z,-4.35
2019-01-24T04:25:04.401Z,-4.36
2019-01-24T04:26:38.405Z,-4.36
2019-01-24T04:28:13.382Z,-4.38
2019-01-24T04:29:47.747Z,-4.39
2019-01-24T04:31:21.780Z,-4.40
2019-01-24T04:32:55.697Z,-4.41
2019-01-24T04:34:30.296Z,-4.41
2019-01-24T04:36:03.854Z,-4.45
2019-01-24T04:37:38.202Z,-4.44
2019-01-24T04:39:12.412Z,-4.47
2019-01-24T04:40:46.891Z,-4.48
2019-01-24T04:42:21.339Z,-4.50
2019-01-24T04:43:55.219Z,-4.51
2019-01-24T04:45:30.237Z,-4.52
2019-01-24T04:47:04.280Z,-4.53
2019-01-24T04:48:38.570Z,-4.54
2019-01-24T04:50:13.337Z,-4.57
2019-01-24T04:51:47.456Z,-4.58
2019-01-24T04:53:21.525Z,-4.60
2019-01-24T04:54:55.978Z,-4.59
2019-01-24T04:56:30.237Z,-4.62
2019-01-24T04:58:05.892Z,-4.62
2019-01-24T04:59:40.265Z,-4.63
2019-01-24T05:01:14.698Z,-4.64
2019-01-24T05:02:48.709Z,-4.66
2019-01-24T05:04:22.819Z,-4.67
2019-01-24T05:05:57.297Z,-4.67
2019-01-24T05:07:31.442Z,-4.69
2019-01-24T05:09:05.067Z,-4.71
2019-01-24T05:10:38.300Z,-4.72
2019-01-24T05:12:12.958Z,-4.73
2019-01-24T05:13:46.948Z,-4.74
2019-01-24T05:15:20.963Z,-4.74
2019-01-24T05:16:54.767Z,-4.76
2019-01-24T05:18:28.195Z,-4.78
2019-01-24T05:20:01.956Z,-4.80
2019-01-24T05:21:35.754Z,-4.81
2019-01-24T05:23:10.356Z,-4.82
2019-01-24T05:24:43.723Z,-4.82
2019-01-24T05:26:17.874Z,-4.85
2019-01-24T05:27:51.452Z,-4.85
2019-01-24T05:29:25.364Z,-4.87
2019-01-24T05:30:58.350Z,-4.88
2019-01-24T05:32:32.226Z,-4.88
2019-01-24T05:34:06.464Z,-4.91
2019-01-24T05:35:39.501Z,-4.91
2019-01-24T05:37:13.718Z,-4.92
2019-01-24T05:38:48.076Z,-4.95
2019-01-24T05:40:23.299Z,-4.95
2019-01-24T05:41:57.940Z,-4.96
2019-01-24T05:43:30.937Z,-4.97
2019-01-24T05:45:04.682Z,-4.99
2019-01-24T05:46:38.781Z,-5.00
2019-01-24T05:48:11.632Z,-5.02
2019-01-24T05:49:44.563Z,-5.03
2019-01-24T05:51:18.711Z,-5.04
2019-01-24T05:52:52.982Z,-5.05
2019-01-24T05:54:26.849Z,-5.06
2019-01-24T05:56:01.196Z,-5.08
2019-01-24T05:57:35.190Z,-5.09
2019-01-24T05:59:08.440Z,-5.10
2019-01-24T06:00:46.897Z,-5.11
2019-01-24T06:02:21.822Z,-5.13
2019-01-24T06:03:55.798Z,-5.13
2019-01-24T06:05:31.022Z,-5.16
2019-01-24T06:07:05.842Z,-5.15
2019-01-24T06:08:39.701Z,-5.17
2019-01-24T06:10:13.995Z,-5.19
2019-01-24T06:11:47.085Z,-5.19
2019-01-24T06:13:21.307Z,-5.20
2019-01-24T06:14:55.550Z,-5.21
2019-01-24T06:16:28.628Z,-5.22
2019-01-24T06:18:02.850Z,-5.23
2019-01-24T06:19:36.774Z,-5.23
2019-01-24T06:21:11.210Z,-5.24
2019-01-24T06:22:44.779Z,-5.24
2019-01-24T06:24:17.887Z,-5.25
2019-01-24T06:25:51.547Z,-5.24
2019-01-24T06:27:26.037Z,-5.26
2019-01-24T06:28:59.759Z,-5.25
2019-01-24T06:30:36.036Z,-5.25
2019-01-24T06:32:10.024Z,-5.26
2019-01-24T06:33:44.067Z,-5.27
2019-01-24T06:35:18.334Z,-5.27
2019-01-24T06:36:52.569Z,-5.27
2019-01-24T06:38:26.982Z,-5.28
2019-01-24T06:40:01.236Z,-5.28
2019-01-24T06:41:34.495Z,-5.29
2019-01-24T06:43:08.787Z,-5.28
2019-01-24T06:44:41.859Z,-5.28
2019-01-24T06:46:15.870Z,-5.29
2019-01-24T06:47:50.004Z,-5.29
2019-01-24T06:49:23.158Z,-5.28
2019-01-24T06:50:57.054Z,-5.28
2019-01-24T06:52:31.079Z,-5.28
2019-01-24T06:54:05.443Z,-5.27
2019-01-24T06:55:42.546Z,-5.28
2019-01-24T06:57:16.491Z,-5.28
2019-01-24T06:58:49.348Z,-5.27
2019-01-24T07:00:24.386Z,-5.27
2019-01-24T07:01:57.342Z,-5.26
2019-01-24T07:03:31.595Z,-5.27
2019-01-24T07:05:04.672Z,-5.25
2019-01-24T07:06:39.171Z,-5.25
2019-01-24T07:08:13.459Z,-5.23
2019-01-24T07:09:46.727Z,-5.24
2019-01-24T07:11:20.567Z,-5.24
2019-01-24T07:12:54.533Z,-5.23
2019-01-24T07:14:28.517Z,-5.22
2019-01-24T07:16:03.531Z,-5.23
2019-01-24T07:17:38.114Z,-5.22
2019-01-24T07:19:12.282Z,-5.22
2019-01-24T07:20:46.576Z,-5.22
2019-01-24T07:22:20.974Z,-5.21
2019-01-24T07:23:55.063Z,-5.20
2019-01-24T07:25:33.064Z,-5.19
2019-01-24T07:27:07.163Z,-5.19
2019-01-24T07:28:41.601Z,-5.18
2019-01-24T07:30:15.481Z,-5.18
2019-01-24T07:31:49.919Z,-5.18
2019-01-24T07:33:24.031Z,-5.16
2019-01-24T07:34:57.856Z,-5.15
2019-01-24T07:36:31.795Z,-5.15
2019-01-24T07:38:06.352Z,-5.15
2019-01-24T07:39:40.630Z,-5.14
2019-01-24T07:41:14.641Z,-5.14
2019-01-24T07:42:48.157Z,-5.13
2019-01-24T07:44:22.261Z,-5.12
2019-01-24T07:45:58.826Z,-5.11
2019-01-24T07:47:32.942Z,-5.10
2019-01-24T07:49:07.152Z,-5.10
2019-01-24T07:50:41.113Z,-5.08
2019-01-24T07:52:15.059Z,-5.08
2019-01-24T07:53:48.978Z,-5.06
2019-01-24T07:55:24.366Z,-5.07
2019-01-24T07:56:58.452Z,-5.05
2019-01-24T07:58:32.174Z,-5.05
2019-01-24T08:00:05.936Z,-5.04
2019-01-24T08:01:39.713Z,-5.03
2019-01-24T08:03:13.915Z,-5.02
2019-01-24T08:04:48.112Z,-5.01
2019-01-24T08:06:22.097Z,-5.01
2019-01-24T08:07:56.197Z,-5.00
2019-01-24T08:09:30.332Z,-4.99
2019-01-24T08:11:04.950Z,-4.98
2019-01-24T08:12:38.754Z,-4.97
2019-01-24T08:14:12.111Z,-4.99
2019-01-24T08:15:51.534Z,-4.94
2019-01-24T08:17:26.910Z,-4.93
2019-01-24T08:19:02.568Z,-4.92
2019-01-24T08:20:40.594Z,-4.91
2019-01-24T08:22:15.576Z,-4.88
2019-01-24T08:23:50.280Z,-4.88
2019-01-24T08:25:25.250Z,-4.86
2019-01-24T08:26:59.073Z,-4.85
2019-01-24T08:28:32.868Z,-4.83
2019-01-24T08:30:06.932Z,-4.81
2019-01-24T08:31:41.435Z,-4.81
2019-01-24T08:33:15.427Z,-4.79
2019-01-24T08:34:48.375Z,-4.78
2019-01-24T08:36:23.769Z,-4.77
2019-01-24T08:37:57.679Z,-4.74
2019-01-24T08:39:32.770Z,-4.74
2019-01-24T08:41:05.956Z,-4.73
2019-01-24T08:42:41.292Z,-4.72
2019-01-24T08:44:16.964Z,-4.70
2019-01-24T08:45:52.044Z,-4.70
2019-01-24T08:47:26.206Z,-4.69
2019-01-24T08:49:00.699Z,-4.68
2019-01-24T08:50:37.046Z,-4.66
2019-01-24T08:52:11.476Z,-4.66
2019-01-24T08:53:44.347Z,-4.65
2019-01-24T08:55:17.446Z,-4.63
2019-01-24T08:56:50.369Z,-4.63
2019-01-24T08:58:25.367Z,-4.63
2019-01-24T08:59:59.788Z,-4.62
2019-01-24T09:01:33.852Z,-4.61
2019-01-24T09:03:06.877Z,-4.60
2019-01-24T09:04:40.003Z,-4.62
2019-01-24T09:06:14.161Z,-4.60
2019-01-24T09:07:47.137Z,-4.59
2019-01-24T09:09:23.857Z,-4.57
2019-01-24T09:11:00.690Z,-4.55
2019-01-24T09:12:34.718Z,-4.53
2019-01-24T09:14:09.405Z,-4.51
2019-01-24T09:15:43.841Z,-4.49
2019-01-24T09:17:17.920Z,-4.47
2019-01-24T09:18:51.793Z,-4.43
2019-01-24T09:20:27.126Z,-4.42
2019-01-24T09:22:01.578Z,-4.40
2019-01-24T09:23:35.889Z,-4.39
2019-01-24T09:25:10.132Z,-4.35
2019-01-24T09:26:44.113Z,-4.34
2019-01-24T09:28:17.108Z,-4.32
2019-01-24T09:29:50.987Z,-4.29
2019-01-24T09:31:25.464Z,-4.27
2019-01-24T09:32:59.400Z,-4.24
2019-01-24T09:34:33.216Z,-4.21
2019-01-24T09:36:07.413Z,-4.19
2019-01-24T09:37:41.582Z,-4.15
2019-01-24T09:39:16.044Z,-4.13
2019-01-24T09:40:50.797Z,-4.10
2019-01-24T09:42:24.867Z,-4.05
2019-01-24T09:43:58.336Z,-4.03
2019-01-24T09:45:35.354Z,-4.01
2019-01-24T09:47:08.698Z,-3.97
2019-01-24T09:48:42.833Z,-3.94
2019-01-24T09:50:17.514Z,-3.91
2019-01-24T09:51:51.784Z,-3.89
2019-01-24T09:53:25.976Z,-3.86
2019-01-24T09:54:59.915Z,-3.83
2019-01-24T09:56:34.049Z,-3.81
2019-01-24T09:58:09.051Z,-3.78
2019-01-24T09:59:43.019Z,-3.77
2019-01-24T10:01:18.152Z,-3.72
2019-01-24T10:02:51.919Z,-3.70
2019-01-24T10:04:25.951Z,-3.68
2019-01-24T10:06:00.016Z,-3.65
2019-01-24T10:07:33.818Z,-3.63
2019-01-24T10:09:06.948Z,-3.61
2019-01-24T10:10:40.903Z,-3.58
2019-01-24T10:12:14.835Z,-3.56
2019-01-24T10:13:48.344Z,-3.54
2019-01-24T10:15:23.676Z,-3.52
2019-01-24T10:16:58.293Z,-3.50
2019-01-24T10:20:11.284Z,-3.45
2019-01-24T10:21:44.874Z,-3.42
2019-01-24T10:23:19.510Z,-3.41
2019-01-24T10:25:04.603Z,-3.38
2019-01-24T10:26:39.189Z,-3.37
2019-01-24T10:28:14.148Z,-3.34
2019-01-24T10:29:48.150Z,-3.32
2019-01-24T10:31:22.471Z,-3.29
2019-01-24T10:32:57.291Z,-3.28
2019-01-24T10:34:32.467Z,-3.25
2019-01-24T10:36:07.361Z,-3.22
2019-01-24T10:37:41.350Z,-3.20
2019-01-24T10:39:16.249Z,-3.16
2019-01-24T10:40:52.382Z,-3.16
2019-01-24T10:42:26.306Z,-3.13
2019-01-24T10:43:59.370Z,-3.10
2019-01-24T10:45:35.391Z,-3.08
2019-01-24T10:47:09.308Z,-3.05
2019-01-24T10:48:44.705Z,-3.03
2019-01-24T10:50:19.912Z,-3.00
2019-01-24T10:51:53.650Z,-3.00
2019-01-24T10:53:28.044Z,-2.97
2019-01-24T10:55:02.062Z,-2.94
2019-01-24T10:56:37.371Z,-2.92
2019-01-24T10:58:12.323Z,-2.91
2019-01-24T10:59:46.142Z,-2.88
2019-01-24T11:01:20.079Z,-2.86
2019-01-24T11:02:53.462Z,-2.84
2019-01-24T11:04:27.444Z,-2.82
2019-01-24T11:06:01.965Z,-2.79
2019-01-24T11:07:34.961Z,-2.76
2019-01-24T11:09:08.879Z,-2.74
2019-01-24T11:10:44.134Z,-2.72
2019-01-24T11:12:17.571Z,-2.70
2019-01-24T11:13:51.571Z,-2.68
2019-01-24T11:15:27.682Z,-2.66
2019-01-24T11:17:00.964Z,-2.64
2019-01-24T11:18:35.586Z,-2.62
2019-01-24T11:20:09.426Z,-2.60
2019-01-24T11:21:43.412Z,-2.58
2019-01-24T11:23:16.524Z,-2.56
2019-01-24T11:24:50.599Z,-2.53
2019-01-24T11:26:25.367Z,-2.50
2019-01-24T11:28:00.067Z,-2.48
2019-01-24T11:29:34.355Z,-2.47
2019-01-24T11:31:08.772Z,-2.47
2019-01-24T11:32:42.918Z,-2.43
2019-01-24T11:34:16.992Z,-2.42
2019-01-24T11:35:53.702Z,-2.39
2019-01-24T11:37:27.596Z,-2.36
2019-01-24T11:39:01.884Z,-2.34
2019-01-24T11:40:36.717Z,-2.32
2019-01-24T11:42:10.127Z,-2.30
2019-01-24T11:43:44.610Z,-2.27
2019-01-24T11:45:18.598Z,-2.26
2019-01-24T11:46:52.876Z,-2.23
2019-01-24T11:48:26.946Z,-2.22
2019-01-24T11:50:00.101Z,-2.20
2019-01-24T11:51:33.914Z,-2.18
2019-01-24T11:53:07.043Z,-2.17
2019-01-24T11:54:40.993Z,-2.15
2019-01-24T11:56:15.011Z,-2.13
2019-01-24T11:57:49.391Z,-2.13
2019-01-24T11:59:23.517Z,-2.09
2019-01-24T12:00:58.434Z,-2.07
2019-01-24T12:02:31.183Z,-2.04
2019-01-24T12:04:05.322Z,-2.02
2019-01-24T12:05:43.540Z,-2.00
2019-01-24T12:07:20.304Z,-1.99
2019-01-24T12:08:56.863Z,-1.95
2019-01-24T12:10:33.736Z,-1.93
2019-01-24T12:12:11.835Z,-1.91
2019-01-24T12:13:47.656Z,-1.89
2019-01-24T12:15:23.141Z,-1.88
2019-01-24T12:16:59.149Z,-1.85
2019-01-24T12:18:33.459Z,-1.88
2019-01-24T12:20:08.004Z,-1.84
2019-01-24T12:21:44.159Z,-1.83
2019-01-24T12:23:20.104Z,-1.82
2019-01-24T12:24:54.669Z,-1.80
2019-01-24T12:26:28.548Z,-1.80
2019-01-24T12:28:03.840Z,-1.79
2019-01-24T12:29:40.252Z,-1.78
2019-01-24T12:31:17.625Z,-1.76
2019-01-24T12:32:51.108Z,-1.74
2019-01-24T12:34:25.164Z,-1.72
2019-01-24T12:35:59.313Z,-1.72
2019-01-24T12:37:33.663Z,-1.72
2019-01-24T12:39:07.469Z,-1.70
2019-01-24T12:40:41.613Z,-1.69
2019-01-24T12:42:15.778Z,-1.69
2019-01-24T12:43:49.022Z,-1.66
2019-01-24T12:45:25.673Z,-1.66
2019-01-24T12:46:59.270Z,-1.64
2019-01-24T12:48:33.295Z,-1.63
2019-01-24T12:50:06.122Z,-1.62
2019-01-24T12:51:40.263Z,-1.62
2019-01-24T12:53:14.354Z,-1.60
2019-01-24T12:54:47.500Z,-1.56
2019-01-24T12:56:20.446Z,-1.54
2019-01-24T12:57:53.818Z,-1.53
2019-01-24T12:59:28.021Z,-1.51
2019-01-24T13:01:02.922Z,-1.49
2019-01-24T13:02:37.414Z,-1.48
2019-01-24T13:04:12.530Z,-1.48
2019-01-24T13:05:45.621Z,-1.47
2019-01-24T13:07:19.888Z,-1.46
2019-01-24T13:08:53.817Z,-1.45
2019-01-24T13:10:30.736Z,-1.45
2019-01-24T13:12:04.775Z,-1.44
2019-01-24T13:13:39.815Z,-1.44
2019-01-24T13:15:13.811Z,-1.43
2019-01-24T13:16:47.153Z,-1.42
2019-01-24T13:18:21.574Z,-1.40
2019-01-24T13:19:54.753Z,-1.39
2019-01-24T13:21:28.599Z,-1.39
2019-01-24T13:23:01.500Z,-1.37
2019-01-24T13:24:35.711Z,-1.35
2019-01-24T13:26:08.831Z,-1.35
2019-01-24T13:27:41.846Z,-1.34
2019-01-24T13:29:15.831Z,-1.35
2019-01-24T13:30:51.354Z,-1.35
2019-01-24T13:32:24.662Z,-1.34
2019-01-24T13:33:58.548Z,-1.32
2019-01-24T13:35:31.492Z,-1.32
2019-01-24T13:37:05.667Z,-1.32
2019-01-24T13:38:38.609Z,-1.32
2019-01-24T13:40:12.827Z,-1.31
2019-01-24T13:41:46.750Z,-1.30
2019-01-24T13:43:21.773Z,-1.30
2019-01-24T13:44:56.094Z,-1.30
2019-01-24T13:46:30.316Z,-1.30
2019-01-24T13:48:04.285Z,-1.28
2019-01-24T13:49:37.241Z,-1.29
2019-01-24T13:51:11.931Z,-1.28
2019-01-24T13:52:45.926Z,-1.28
2019-01-24T13:54:20.214Z,-1.27
2019-01-24T13:55:53.787Z,-1.28
2019-01-24T13:57:28.166Z,-1.27
2019-01-24T13:59:00.928Z,-1.28
2019-01-24T14:00:38.970Z,-1.28
2019-01-24T14:02:14.053Z,-1.29
2019-01-24T14:03:58.043Z,-1.29
2019-01-24T14:05:34.581Z,-1.29
2019-01-24T14:07:08.769Z,-1.30
2019-01-24T14:08:43.650Z,-1.32
2019-01-24T14:10:18.071Z,-1.30
2019-01-24T14:11:51.108Z,-1.30
2019-01-24T14:13:25.643Z,-1.31
2019-01-24T14:15:00.011Z,-1.32
2019-01-24T14:16:34.634Z,-1.33
2019-01-24T14:18:08.846Z,-1.33
2019-01-24T14:19:41.852Z,-1.34
2019-01-24T14:21:15.032Z,-1.36
2019-01-24T14:22:47.796Z,-1.37
2019-01-24T14:24:21.980Z,-1.38
2019-01-24T14:25:55.389Z,-1.39
2019-01-24T14:27:29.001Z,-1.40
2019-01-24T14:29:03.187Z,-1.43
2019-01-24T14:30:40.255Z,-1.44
2019-01-24T14:32:14.284Z,-1.45
2019-01-24T14:33:47.905Z,-1.46
2019-01-24T14:35:21.655Z,-1.49
2019-01-24T14:36:55.979Z,-1.50
2019-01-24T14:38:30.183Z,-1.52
2019-01-24T14:40:04.091Z,-1.55
2019-01-24T14:41:38.704Z,-1.57
2019-01-24T14:43:13.160Z,-1.59
2019-01-24T14:44:47.228Z,-1.62
2019-01-24T14:46:21.570Z,-1.64
2019-01-24T14:47:55.850Z,-1.64
2019-01-24T14:49:29.925Z,-1.67
2019-01-24T14:51:03.871Z,-1.70
2019-01-24T14:52:38.287Z,-1.72
2019-01-24T14:54:12.486Z,-1.75
2019-01-24T14:55:46.486Z,-1.76
2019-01-24T14:57:19.609Z,-1.78
2019-01-24T14:58:53.511Z,-1.81
2019-01-24T15:00:32.003Z,-1.83
2019-01-24T15:02:06.224Z,-1.86
2019-01-24T15:03:40.511Z,-1.87
2019-01-24T15:05:15.088Z,-1.90
2019-01-24T15:06:49.300Z,-1.92
2019-01-24T15:08:23.655Z,-1.95
2019-01-24T15:09:57.555Z,-1.96
2019-01-24T15:11:31.178Z,-2.01
2019-01-24T15:13:05.286Z,-2.02
2019-01-24T15:14:39.467Z,-2.05
2019-01-24T15:16:12.879Z,-2.07
2019-01-24T15:17:47.099Z,-2.09
2019-01-24T15:19:21.726Z,-2.11
2019-01-24T15:20:56.030Z,-2.13
2019-01-24T15:22:30.561Z,-2.16
2019-01-24T15:24:04.495Z,-2.18
2019-01-24T15:25:38.507Z,-2.21
2019-01-24T15:27:11.980Z,-2.22
2019-01-24T15:28:46.970Z,-2.25
2019-01-24T15:30:22.603Z,-2.28
2019-01-24T15:31:56.699Z,-2.29
2019-01-24T15:33:30.564Z,-2.32
2019-01-24T15:35:03.861Z,-2.35
2019-01-24T15:36:36.907Z,-2.36
2019-01-24T15:38:11.133Z,-2.38
2019-01-24T15:39:45.400Z,-2.42
2019-01-24T15:41:19.591Z,-2.43
2019-01-24T15:42:53.724Z,-2.46
2019-01-24T15:44:28.113Z,-2.48
2019-01-24T15:46:02.332Z,-2.51
2019-01-24T15:47:37.630Z,-2.53
2019-01-24T15:49:10.744Z,-2.56
2019-01-24T15:50:43.624Z,-2.59
2019-01-24T15:52:18.059Z,-2.61
2019-01-24T15:53:51.455Z,-2.64
2019-01-24T15:55:25.706Z,-2.66
2019-01-24T15:56:59.492Z,-2.68
2019-01-24T15:58:33.642Z,-2.71
2019-01-24T16:00:07.928Z,-2.73
2019-01-24T16:01:40.855Z,-2.77
2019-01-24T16:03:16.028Z,-2.78
2019-01-24T16:04:50.067Z,-2.81
2019-01-24T16:06:23.159Z,-2.83
2019-01-24T16:08:01.568Z,-2.86
2019-01-24T16:09:33.019Z,-2.88
2019-01-24T16:11:05.881Z,-2.90
2019-01-24T16:12:39.931Z,-2.91
2019-01-24T16:14:13.085Z,-2.94
2019-01-24T16:15:49.464Z,-2.97
2019-01-24T16:17:23.555Z,-3.00
2019-01-24T16:18:57.502Z,-3.01
2019-01-24T16:20:34.553Z,-3.03
2019-01-24T16:22:07.377Z,-3.07
2019-01-24T16:23:40.730Z,-3.08
2019-01-24T16:25:15.629Z,-3.10
2019-01-24T16:26:49.607Z,-3.13
2019-01-24T16:28:24.831Z,-3.17
2019-01-24T16:29:57.320Z,-3.18
2019-01-24T16:31:31.344Z,-3.21
2019-01-24T16:33:05.315Z,-3.22
2019-01-24T16:34:39.236Z,-3.25
2019-01-24T16:36:13.135Z,-3.28
2019-01-24T16:37:47.211Z,-3.28
2019-01-24T16:39:22.812Z,-3.31
2019-01-24T16:40:56.105Z,-3.33
2019-01-24T16:42:31.013Z,-3.36
2019-01-24T16:44:03.996Z,-3.38
2019-01-24T16:45:41.090Z,-3.41
2019-01-24T16:47:14.940Z,-3.44
2019-01-24T16:48:48.879Z,-3.46
2019-01-24T16:50:24.240Z,-3.49
2019-01-24T16:51:58.506Z,-3.50
2019-01-24T16:53:32.718Z,-3.53
2019-01-24T16:55:06.840Z,-3.56
2019-01-24T16:56:40.947Z,-3.57
2019-01-24T16:58:15.137Z,-3.59
2019-01-24T16:59:49.455Z,-3.63
2019-01-24T17:01:33.903Z,-3.64
2019-01-24T17:03:07.899Z,-3.66
2019-01-24T17:04:42.234Z,-3.69
2019-01-24T17:06:16.649Z,-3.71
2019-01-24T17:07:50.866Z,-3.72
2019-01-24T17:09:25.805Z,-3.74
2019-01-24T17:11:00.411Z,-3.75
2019-01-24T17:12:34.497Z,-3.76
2019-01-24T17:14:08.429Z,-3.76
2019-01-24T17:15:42.408Z,-3.77
2019-01-24T17:17:15.834Z,-3.79
2019-01-24T17:18:50.050Z,-3.79
2019-01-24T17:20:27.215Z,-3.80
2019-01-24T17:22:00.341Z,-3.81
2019-01-24T17:23:33.269Z,-3.79
2019-01-24T17:25:06.509Z,-3.81
2019-01-24T17:26:40.550Z,-3.79
2019-01-24T17:28:14.638Z,-3.79
2019-01-24T17:29:48.340Z,-3.77
2019-01-24T17:31:22.853Z,-3.76
2019-01-24T17:32:57.088Z,-3.75
2019-01-24T17:34:31.681Z,-3.75
2019-01-24T17:36:04.351Z,-3.73
2019-01-24T17:37:38.686Z,-3.73
2019-01-24T17:39:13.443Z,-3.72
2019-01-24T17:40:48.437Z,-3.72
2019-01-24T17:42:22.306Z,-3.72
2019-01-24T17:43:56.482Z,-3.70
2019-01-24T17:45:32.151Z,-3.70
2019-01-24T17:47:06.192Z,-3.67
2019-01-24T17:48:40.510Z,-3.67
2019-01-24T17:50:14.414Z,-3.64
2019-01-24T17:51:48.417Z,-3.63
2019-01-24T17:53:22.047Z,-3.63
2019-01-24T17:54:56.223Z,-3.62
2019-01-24T17:56:29.400Z,-3.63
2019-01-24T17:58:03.572Z,-3.63
2019-01-24T17:59:37.783Z,-3.60
2019-01-24T18:01:11.706Z,-3.69
2019-01-24T18:02:46.104Z,-3.66
2019-01-24T18:04:21.799Z,-3.66
2019-01-24T18:05:54.780Z,-3.62
2019-01-24T18:07:28.339Z,-3.59
2019-01-24T18:09:02.991Z,-3.58
2019-01-24T18:10:41.281Z,-3.60
2019-01-24T18:12:14.335Z,-3.59
2019-01-24T18:13:48.771Z,-3.60
2019-01-24T18:15:24.813Z,-3.58
2019-01-24T18:16:58.231Z,-3.56
2019-01-24T18:18:33.441Z,-3.57
2019-01-24T18:20:07.583Z,-3.55
2019-01-24T18:21:41.651Z,-3.54
2019-01-24T18:23:15.761Z,-3.53
2019-01-24T18:24:49.968Z,-3.51
2019-01-24T18:26:23.980Z,-3.51
2019-01-24T18:27:58.186Z,-3.49
2019-01-24T18:29:32.216Z,-3.49
2019-01-24T18:31:07.133Z,-3.48
2019-01-24T18:32:41.296Z,-3.47
2019-01-24T18:34:15.757Z,-3.46
2019-01-24T18:35:50.180Z,-3.47
2019-01-24T18:37:24.531Z,-3.45
2019-01-24T18:38:58.625Z,-3.43
2019-01-24T18:40:34.914Z,-3.41
2019-01-24T18:42:09.035Z,-3.41
2019-01-24T18:43:45.100Z,-3.40
2019-01-24T18:45:19.205Z,-3.38
2019-01-24T18:46:53.251Z,-3.37
2019-01-24T18:48:27.235Z,-3.37
2019-01-24T18:50:01.339Z,-3.35
2019-01-24T18:51:35.636Z,-3.35
2019-01-24T18:53:09.602Z,-3.35
2019-01-24T18:54:43.574Z,-3.32
2019-01-24T18:56:17.487Z,-3.32
2019-01-24T18:57:50.632Z,-3.30
2019-01-24T18:59:24.445Z,-3.30
2019-01-24T19:00:57.310Z,-3.28
2019-01-24T19:02:31.476Z,-3.27
2019-01-24T19:04:05.373Z,-3.27
2019-01-24T19:05:39.030Z,-3.25
2019-01-24T19:07:12.962Z,-3.25
2019-01-24T19:08:46.212Z,-3.24
2019-01-24T19:10:22.284Z,-3.24
2019-01-24T19:11:56.325Z,-3.23
2019-01-24T19:13:31.106Z,-3.23
2019-01-24T19:15:04.976Z,-3.22
2019-01-24T19:16:39.021Z,-3.21
2019-01-24T19:18:13.142Z,-3.21
2019-01-24T19:19:46.178Z,-3.21
2019-01-24T19:21:21.430Z,-3.19
2019-01-24T19:22:55.742Z,-3.18
2019-01-24T19:24:29.724Z,-3.18
2019-01-24T19:26:04.026Z,-3.17
2019-01-24T19:27:38.982Z,-3.15
2019-01-24T19:29:12.364Z,-3.13
2019-01-24T19:30:46.763Z,-3.13
2019-01-24T19:32:19.774Z,-3.11
2019-01-24T19:33:53.447Z,-3.10
2019-01-24T19:35:29.122Z,-3.09
2019-01-24T19:37:03.002Z,-3.08
2019-01-24T19:38:37.470Z,-3.07
2019-01-24T19:40:12.966Z,-3.06
2019-01-24T19:41:46.921Z,-3.05
2019-01-24T19:43:19.920Z,-3.04
2019-01-24T19:44:54.058Z,-3.02
2019-01-24T19:46:27.745Z,-3.01
2019-01-24T19:48:02.058Z,-3.01
2019-01-24T19:49:36.452Z,-3.00
2019-01-24T19:51:10.500Z,-3.00
2019-01-24T19:52:43.852Z,-2.98
2019-01-24T19:54:17.938Z,-2.97
2019-01-24T19:55:52.175Z,-2.96
2019-01-24T19:57:26.295Z,-2.96
2019-01-24T19:59:00.389Z,-2.95
2019-01-24T20:00:37.564Z,-2.94
2019-01-24T20:02:10.670Z,-2.93
2019-01-24T20:03:43.631Z,-2.93
2019-01-24T20:05:17.750Z,-2.93
2019-01-24T20:06:51.760Z,-2.92
2019-01-24T20:08:25.751Z,-2.91
2019-01-24T20:09:58.726Z,-2.91
2019-01-24T20:11:31.685Z,-2.89
2019-01-24T20:13:06.479Z,-2.90
2019-01-24T20:14:39.330Z,-2.88
2019-01-24T20:16:13.536Z,-2.88
2019-01-24T20:17:47.928Z,-2.86
2019-01-24T20:19:21.752Z,-2.86